Time;durP1;ratioP1;P1;durP2;ratioP2;P2;SDS_P1;SDS_P2;PMS_P1;PMS_P2;Temp;Humidity;BMP_temperature;BMP_pressure;BME280_temperature;BME280_humidity;BME280_pressure;Samples;Min_cycle;Max_cycle;Signal;HPM_P1;HPM_P2
2023/08/17 00:00:23;;;;;;;5.4;3.2;;;;;;;;;;;;;
2023/08/17 00:02:48;;;;;;;5.8;3.1;;;;;;;;;;;;;
2023/08/17 00:05:24;;;;;;;4.6;3;;;;;;;;;;;;;
2023/08/17 00:07:51;;;;;;;3.4;2.5;;;;;;;;;;;;;
2023/08/17 00:10:18;;;;;;;3.4;2.6;;;;;;;;;;;;;
2023/08/17 00:12:45;;;;;;;3.7;2.7;;;;;;;;;;;;;
2023/08/17 00:15:10;;;;;;;3.3;2.8;;;;;;;;;;;;;
2023/08/17 00:17:36;;;;;;;2.8;2.5;;;;;;;;;;;;;
2023/08/17 00:20:04;;;;;;;3.2;2.9;;;;;;;;;;;;;
2023/08/17 00:22:27;;;;;;;5;2.5;;;;;;;;;;;;;
2023/08/17 00:24:52;;;;;;;2.8;2.1;;;;;;;;;;;;;
2023/08/17 00:27:17;;;;;;;5.3;2.5;;;;;;;;;;;;;
2023/08/17 00:29:42;;;;;;;4;2.2;;;;;;;;;;;;;
2023/08/17 00:32:07;;;;;;;3.6;2.2;;;;;;;;;;;;;
2023/08/17 00:34:33;;;;;;;2.5;2.3;;;;;;;;;;;;;
2023/08/17 00:36:58;;;;;;;4.3;2.6;;;;;;;;;;;;;
2023/08/17 00:39:25;;;;;;;4.7;2.5;;;;;;;;;;;;;
2023/08/17 00:41:50;;;;;;;3.2;2.5;;;;;;;;;;;;;
2023/08/17 00:44:19;;;;;;;3.7;2.5;;;;;;;;;;;;;
2023/08/17 00:46:44;;;;;;;5;2.6;;;;;;;;;;;;;
2023/08/17 00:49:10;;;;;;;4.2;2.7;;;;;;;;;;;;;
2023/08/17 00:51:39;;;;;;;2.4;2.2;;;;;;;;;;;;;
2023/08/17 00:54:03;;;;;;;3.6;2.6;;;;;;;;;;;;;
2023/08/17 00:56:28;;;;;;;3.2;2.5;;;;;;;;;;;;;
2023/08/17 00:58:53;;;;;;;7.7;3;;;;;;;;;;;;;
2023/08/17 01:01:18;;;;;;;3.2;2.6;;;;;;;;;;;;;
2023/08/17 01:03:43;;;;;;;3.2;2.9;;;;;;;;;;;;;
2023/08/17 01:06:09;;;;;;;2.7;2.5;;;;;;;;;;;;;
2023/08/17 01:08:34;;;;;;;3.2;2.5;;;;;;;;;;;;;
2023/08/17 01:10:59;;;;;;;3.9;2.7;;;;;;;;;;;;;
2023/08/17 01:13:24;;;;;;;6.4;3;;;;;;;;;;;;;
2023/08/17 01:15:50;;;;;;;4.8;2.8;;;;;;;;;;;;;
2023/08/17 01:18:18;;;;;;;3.8;2.9;;;;;;;;;;;;;
2023/08/17 01:20:42;;;;;;;5.1;2.8;;;;;;;;;;;;;
2023/08/17 01:23:10;;;;;;;5.4;3.1;;;;;;;;;;;;;
2023/08/17 01:25:36;;;;;;;3.5;2.8;;;;;;;;;;;;;
2023/08/17 01:28:00;;;;;;;3.6;2.6;;;;;;;;;;;;;
2023/08/17 01:30:25;;;;;;;3.4;2.4;;;;;;;;;;;;;
2023/08/17 01:32:50;;;;;;;2.7;2.5;;;;;;;;;;;;;
2023/08/17 01:35:15;;;;;;;3.3;2.7;;;;;;;;;;;;;
2023/08/17 01:37:40;;;;;;;3.4;2.7;;;;;;;;;;;;;
2023/08/17 01:40:09;;;;;;;4.7;2.6;;;;;;;;;;;;;
2023/08/17 01:42:34;;;;;;;4;3;;;;;;;;;;;;;
2023/08/17 01:47:36;;;;;;;3.7;2.6;;;;;;;;;;;;;
2023/08/17 01:50:02;;;;;;;3.4;2.7;;;;;;;;;;;;;
2023/08/17 01:52:27;;;;;;;3.5;2.7;;;;;;;;;;;;;
2023/08/17 01:54:52;;;;;;;3.6;2.7;;;;;;;;;;;;;
2023/08/17 01:57:17;;;;;;;3.1;2.5;;;;;;;;;;;;;
2023/08/17 01:59:44;;;;;;;3;2.4;;;;;;;;;;;;;
2023/08/17 02:02:11;;;;;;;2.9;2.2;;;;;;;;;;;;;
2023/08/17 02:04:34;;;;;;;3.6;2.3;;;;;;;;;;;;;
2023/08/17 02:06:59;;;;;;;3.4;2.2;;;;;;;;;;;;;
2023/08/17 02:09:24;;;;;;;3.5;2.4;;;;;;;;;;;;;
2023/08/17 02:11:50;;;;;;;3.8;2.1;;;;;;;;;;;;;
2023/08/17 02:14:16;;;;;;;3.8;2.3;;;;;;;;;;;;;
2023/08/17 02:16:41;;;;;;;4.3;2.1;;;;;;;;;;;;;
2023/08/17 02:19:06;;;;;;;3;2.3;;;;;;;;;;;;;
2023/08/17 02:21:31;;;;;;;3.9;2.2;;;;;;;;;;;;;
2023/08/17 02:23:56;;;;;;;3.2;2.6;;;;;;;;;;;;;
2023/08/17 02:26:21;;;;;;;2.9;2.3;;;;;;;;;;;;;
2023/08/17 02:28:48;;;;;;;2.8;2.3;;;;;;;;;;;;;
2023/08/17 02:31:13;;;;;;;2.5;2.2;;;;;;;;;;;;;
2023/08/17 02:33:38;;;;;;;2.6;2.4;;;;;;;;;;;;;
2023/08/17 02:36:04;;;;;;;2.7;2.5;;;;;;;;;;;;;
2023/08/17 02:38:30;;;;;;;5.4;2.7;;;;;;;;;;;;;
2023/08/17 02:40:55;;;;;;;3.1;2.4;;;;;;;;;;;;;
2023/08/17 02:43:20;;;;;;;3.2;2.5;;;;;;;;;;;;;
2023/08/17 02:45:45;;;;;;;4.4;2.5;;;;;;;;;;;;;
2023/08/17 02:48:10;;;;;;;2.8;2.5;;;;;;;;;;;;;
2023/08/17 02:50:35;;;;;;;2.7;2.2;;;;;;;;;;;;;
2023/08/17 02:53:04;;;;;;;2.5;2.3;;;;;;;;;;;;;
2023/08/17 02:55:29;;;;;;;2.6;2.2;;;;;;;;;;;;;
2023/08/17 02:57:54;;;;;;;3.4;2.2;;;;;;;;;;;;;
2023/08/17 03:00:19;;;;;;;4;2.4;;;;;;;;;;;;;
2023/08/17 03:02:45;;;;;;;3.6;2.1;;;;;;;;;;;;;
2023/08/17 03:05:10;;;;;;;2.3;2.1;;;;;;;;;;;;;
2023/08/17 03:07:37;;;;;;;4.2;2.5;;;;;;;;;;;;;
2023/08/17 03:10:02;;;;;;;2.4;2.2;;;;;;;;;;;;;
2023/08/17 03:12:29;;;;;;;3.7;2.3;;;;;;;;;;;;;
2023/08/17 03:14:54;;;;;;;2.4;2.1;;;;;;;;;;;;;
2023/08/17 03:17:20;;;;;;;3.9;2.4;;;;;;;;;;;;;
2023/08/17 03:19:45;;;;;;;2.6;2.1;;;;;;;;;;;;;
2023/08/17 03:22:12;;;;;;;3;2.1;;;;;;;;;;;;;
2023/08/17 03:24:37;;;;;;;3.2;2;;;;;;;;;;;;;
2023/08/17 03:27:02;;;;;;;2.7;2.2;;;;;;;;;;;;;
2023/08/17 03:29:28;;;;;;;2.9;2.3;;;;;;;;;;;;;
2023/08/17 03:31:53;;;;;;;3.4;2.3;;;;;;;;;;;;;
2023/08/17 03:34:18;;;;;;;2.7;2.3;;;;;;;;;;;;;
2023/08/17 03:36:44;;;;;;;3.8;2.4;;;;;;;;;;;;;
2023/08/17 03:39:10;;;;;;;2.6;2;;;;;;;;;;;;;
2023/08/17 03:41:36;;;;;;;3.3;2.2;;;;;;;;;;;;;
2023/08/17 03:44:00;;;;;;;2.3;2;;;;;;;;;;;;;
2023/08/17 03:46:25;;;;;;;2.4;2.2;;;;;;;;;;;;;
2023/08/17 03:48:50;;;;;;;2.1;1.9;;;;;;;;;;;;;
2023/08/17 03:51:15;;;;;;;2.7;2.3;;;;;;;;;;;;;
2023/08/17 03:53:41;;;;;;;2.9;2.3;;;;;;;;;;;;;
2023/08/17 03:56:06;;;;;;;2.7;2.2;;;;;;;;;;;;;
2023/08/17 03:58:34;;;;;;;2.9;2.1;;;;;;;;;;;;;
2023/08/17 04:02:35;;;;;;;2.3;2.1;;;;;;;18.05;89.57031;939.4691;;;;
2023/08/17 04:05:00;;;;;;;2.2;2;;;;;;;18.04;88.73242;939.4725;;;;
2023/08/17 04:07:25;;;;;;;2.4;2;;;;;;;17.92;89.21973;939.5056;;;;
2023/08/17 04:09:52;;;;;;;2.3;2.1;;;;;;;17.92;89.04492;939.475;;;;
2023/08/17 04:12:18;;;;;;;2.1;1.8;;;;;;;17.91;88.97559;939.5203;;;;
2023/08/17 04:14:42;;;;;;;3;2.1;;;;;;;17.91;89.5791;939.4849;;;;
2023/08/17 04:17:10;;;;;;;2.7;2.2;;;;;;;17.91;89.80957;939.5502;;;;
2023/08/17 04:19:35;;;;;;;5.2;2.1;;;;;;;17.97;89.62402;939.6016;;;;
2023/08/17 04:22:00;;;;;;;4;2.5;;;;;;;17.93;90.24316;939.6594;;;;
2023/08/17 04:24:28;;;;;;;3.4;2.5;;;;;;;17.97;90.77344;939.7418;;;;
2023/08/17 04:26:53;;;;;;;5.2;2.6;;;;;;;17.95;91.11816;939.6607;;;;
2023/08/17 04:29:19;;;;;;;3.4;2.7;;;;;;;18.07;90.94629;939.6824;;;;
2023/08/17 04:31:45;;;;;;;2.5;2.3;;;;;;;18.12;89.66797;939.6814;;;;
2023/08/17 04:34:14;;;;;;;3.6;2.3;;;;;;;18.02;89.36719;939.6742;;;;
2023/08/17 04:36:43;;;;;;;2.7;2;;;;;;;18.03;89.61328;939.6749;;;;
2023/08/17 04:39:09;;;;;;;3.9;2.6;;;;;;;18.08;89.42676;939.6877;;;;
2023/08/17 04:41:36;;;;;;;2.9;2.4;;;;;;;18.07;89.23926;939.6372;;;;
2023/08/17 04:44:01;;;;;;;5;2.3;;;;;;;18.02;89.61133;939.6514;;;;
2023/08/17 04:46:27;;;;;;;2.9;2.3;;;;;;;17.97;89.17285;939.6563;;;;
2023/08/17 04:48:52;;;;;;;2.4;2.2;;;;;;;17.89;88.98145;939.6641;;;;
2023/08/17 04:51:19;;;;;;;2.6;2.4;;;;;;;17.87;89.19727;939.5421;;;;
2023/08/17 04:53:44;;;;;;;2.3;2.1;;;;;;;17.96;88.625;939.6411;;;;
2023/08/17 04:56:09;;;;;;;2.4;2.2;;;;;;;18;88.37695;939.6912;;;;
2023/08/17 04:58:37;;;;;;;3.2;2.7;;;;;;;18.05;87.93262;939.7166;;;;
2023/08/17 05:01:03;;;;;;;3.6;2.9;;;;;;;18.13;87.68164;939.7667;;;;
2023/08/17 05:03:30;;;;;;;3.5;2.5;;;;;;;18.19;87.91504;939.7842;;;;
2023/08/17 05:05:54;;;;;;;2.9;2.2;;;;;;;18.12;87.90039;939.7991;;;;
2023/08/17 05:08:23;;;;;;;3.5;2.3;;;;;;;18.07;87.99609;939.7347;;;;
2023/08/17 05:10:47;;;;;;;2.4;2.2;;;;;;;18.08;88.28809;939.6925;;;;
2023/08/17 05:13:15;;;;;;;2.9;2.4;;;;;;;18.05;88.57129;939.7569;;;;
2023/08/17 05:15:40;;;;;;;2.3;2.1;;;;;;;18.08;88.16016;939.7683;;;;
2023/08/17 05:18:05;;;;;;;3.7;2;;;;;;;18.11;88.00195;939.7905;;;;
2023/08/17 05:20:30;;;;;;;3.4;2.5;;;;;;;18.11;88.07324;939.7759;;;;
2023/08/17 05:23:08;;;;;;;3.1;2.5;;;;;;;18.17;88.02734;939.7419;;;;
2023/08/17 05:25:36;;;;;;;3;2.2;;;;;;;18.13;88.07617;939.7772;;;;
2023/08/17 05:28:02;;;;;;;23.1;13.7;;;;;;;18.13;88.09961;939.791;;;;
2023/08/17 05:30:27;;;;;;;11.6;6.5;;;;;;;18.18;87.87695;939.8013;;;;
2023/08/17 05:32:52;;;;;;;4.3;3.6;;;;;;;18.36;87.05273;939.7662;;;;
2023/08/17 05:35:17;;;;;;;3.5;3.2;;;;;;;18.68;86.89746;939.7352;;;;
2023/08/17 05:37:42;;;;;;;2.5;2;;;;;;;19.71;81.89844;939.7367;;;;
2023/08/17 05:40:10;;;;;;;4.3;2;;;;;;;20.87;76.60645;939.7028;;;;
2023/08/17 05:42:34;;;;;;;2.4;2.1;;;;;;;21.89;70.98438;939.7022;;;;
2023/08/17 05:45:01;;;;;;;2.4;1.6;;;;;;;22.59;66.79004;939.6548;;;;
2023/08/17 05:47:26;;;;;;;2.2;1.7;;;;;;;23.16;63.75;939.7216;;;;
2023/08/17 05:52:16;;;;;;;1.7;1.6;;;;;;;24.32;63.23145;939.7544;;;;
2023/08/17 05:54:42;;;;;;;2.4;1.6;;;;;;;24.42;59.69922;939.785;;;;
2023/08/17 05:57:11;;;;;;;2.2;1.9;;;;;;;24.01;63.10449;939.7622;;;;
2023/08/17 05:59:40;;;;;;;2.9;2.2;;;;;;;23.87;60.27246;939.7872;;;;
2023/08/17 06:02:05;;;;;;;1.8;1.5;;;;;;;23.87;60.17871;939.7879;;;;
2023/08/17 06:04:30;;;;;;;1.9;1.6;;;;;;;24.19;59.00781;939.7316;;;;
2023/08/17 06:06:58;;;;;;;2.7;1.8;;;;;;;24.1;59.87988;939.7481;;;;
2023/08/17 06:09:23;;;;;;;1.5;1.4;;;;;;;25.25;55.90234;939.6605;;;;
2023/08/17 06:11:51;;;;;;;2.3;1.8;;;;;;;25.94;54.33203;939.6672;;;;
2023/08/17 06:14:16;;;;;;;2.3;1.6;;;;;;;26.31;54.43652;939.6155;;;;
2023/08/17 06:16:47;;;;;;;2.2;1.7;;;;;;;26.35;54.01563;939.6007;;;;
2023/08/17 06:19:17;;;;;;;1.9;1.7;;;;;;;27.49;52.01855;939.6333;;;;
2023/08/17 06:21:46;;;;;;;2.7;1.6;;;;;;;28.01;49.68945;939.6042;;;;
2023/08/17 06:24:11;;;;;;;2;1.7;;;;;;;26.86;52.95117;939.5898;;;;
2023/08/17 06:26:42;;;;;;;2.7;1.6;;;;;;;27.63;50.20605;939.6141;;;;
2023/08/17 06:29:06;;;;;;;2.1;1.9;;;;;;;28.5;49.3623;939.6038;;;;
2023/08/17 06:31:33;;;;;;;1.8;1.5;;;;;;;29.74;46.75684;939.5936;;;;
2023/08/17 06:33:58;;;;;;;2.1;1.4;;;;;;;30.02;44.31543;939.5327;;;;
2023/08/17 06:37:07;;;;;;;1.5;1.4;;;;;;;29.59;45.37012;939.4964;;;;
2023/08/17 06:39:33;;;;;;;1.7;1.5;;;;;;;28.22;49.02246;939.5403;;;;
2023/08/17 06:42:05;;;;;;;1.6;1.4;;;;;;;26.88;52.12402;939.5535;;;;
2023/08/17 06:44:33;;;;;;;1.6;1.3;;;;;;;25.97;51.50977;939.545;;;;
2023/08/17 06:47:03;;;;;;;1.6;1.5;;;;;;;24.78;53.83887;939.5106;;;;
2023/08/17 06:49:28;;;;;;;1.9;1.5;;;;;;;23.93;56.75;939.5544;;;;
2023/08/17 06:51:54;;;;;;;3.2;1.4;;;;;;;24.02;58.31445;939.5137;;;;
2023/08/17 06:54:21;;;;;;;1.7;1.6;;;;;;;23.75;58.97363;939.5298;;;;
2023/08/17 06:56:46;;;;;;;2;1.5;;;;;;;23.74;62.9248;939.562;;;;
2023/08/17 06:59:15;;;;;;;1.9;1.6;;;;;;;23.61;60.75488;939.5959;;;;
2023/08/17 07:01:41;;;;;;;1.9;1.6;;;;;;;22.76;61.26074;939.5762;;;;
2023/08/17 07:05:01;;;;;;;2.1;1.6;;;;;;;22.57;62.05664;939.5923;;;;
2023/08/17 07:07:26;;;;;;;4.1;1.7;;;;;;;22.52;62.83496;939.5917;;;;
2023/08/17 07:09:56;;;;;;;2.3;1.7;;;;;;;22.2;63.58789;939.5441;;;;
2023/08/17 07:12:21;;;;;;;2.5;1.8;;;;;;;22.21;63.74121;939.5667;;;;
2023/08/17 07:14:46;;;;;;;1.6;1.5;;;;;;;22.46;65.25488;939.6245;;;;
2023/08/17 07:17:11;;;;;;;4.3;2;;;;;;;22.39;65.9375;939.5762;;;;
2023/08/17 07:19:37;;;;;;;1.8;1.5;;;;;;;22.53;64.33887;939.6092;;;;
2023/08/17 07:22:02;;;;;;;3.4;1.6;;;;;;;22.89;65.3418;939.6426;;;;
2023/08/17 07:24:30;;;;;;;3.2;1.8;;;;;;;23.8;64.97168;939.6756;;;;
2023/08/17 07:26:58;;;;;;;2.1;1.4;;;;;;;24.33;61.23047;939.6661;;;;
2023/08/17 07:29:23;;;;;;;3.1;1.6;;;;;;;24.37;57.73535;939.6841;;;;
2023/08/17 07:31:49;;;;;;;3.6;1.7;;;;;;;24.64;58.21875;939.6945;;;;
2023/08/17 07:34:14;;;;;;;1.7;1.6;;;;;;;24.84;57.41992;939.734;;;;
2023/08/17 07:36:40;;;;;;;3;1.7;;;;;;;24.72;58.87793;939.7094;;;;
2023/08/17 07:39:05;;;;;;;2.6;1.8;;;;;;;24.62;59.67871;939.7453;;;;
2023/08/17 07:41:32;;;;;;;1.8;1.7;;;;;;;24.71;59.98535;939.7436;;;;
2023/08/17 07:43:58;;;;;;;2.6;1.8;;;;;;;24.85;59.60352;939.7114;;;;
2023/08/17 07:46:24;;;;;;;2.1;1.6;;;;;;;25.1;58.05469;939.7126;;;;
2023/08/17 07:48:49;;;;;;;2.4;1.7;;;;;;;25.24;57.98926;939.7164;;;;
2023/08/17 07:51:15;;;;;;;2.3;1.8;;;;;;;26.03;56.69727;939.7089;;;;
2023/08/17 07:53:40;;;;;;;1.5;1.4;;;;;;;26.29;55.30859;939.6859;;;;
2023/08/17 07:56:07;;;;;;;2.4;1.7;;;;;;;26.53;54.77051;939.6752;;;;
2023/08/17 07:58:32;;;;;;;3.4;1.8;;;;;;;27.32;54.3457;939.6505;;;;
2023/08/17 08:00:59;;;;;;;3.1;1.4;;;;;;;29.18;47.23438;939.6484;;;;
2023/08/17 08:03:24;;;;;;;1.3;1.2;;;;;;;29.86;43.19141;939.6554;;;;
2023/08/17 08:05:49;;;;;;;1.5;1.4;;;;;;;28.8;46.18359;939.6091;;;;
2023/08/17 08:08:14;;;;;;;1.6;1.5;;;;;;;28.65;46.13184;939.6426;;;;
2023/08/17 08:10:43;;;;;;;1.5;1.4;;;;;;;27.91;47.35059;939.6492;;;;
2023/08/17 08:13:09;;;;;;;3.5;1.7;;;;;;;27.51;49.10059;939.6266;;;;
2023/08/17 08:15:43;;;;;;;1.6;1.5;;;;;;;29.08;46.7832;939.5659;;;;
2023/08/17 08:18:14;;;;;;;2.3;1.6;;;;;;;29.82;44.84375;939.5618;;;;
2023/08/17 08:20:44;;;;;;;1.6;1.5;;;;;;;30.57;44.44238;939.5206;;;;
2023/08/17 08:23:09;;;;;;;2;1.6;;;;;;;30.83;41.69238;939.4919;;;;
2023/08/17 08:25:39;;;;;;;1.7;1.5;;;;;;;29.27;44.84961;939.4629;;;;
2023/08/17 08:28:04;;;;;;;1.5;1.4;;;;;;;29.83;43.5459;939.4791;;;;
2023/08/17 08:30:34;;;;;;;2.2;1.5;;;;;;;30.49;44.98242;939.4046;;;;
2023/08/17 08:32:59;;;;;;;2.2;1.7;;;;;;;30.66;42.21484;939.4078;;;;
2023/08/17 08:35:24;;;;;;;1.7;1.6;;;;;;;30.76;45.32031;939.3237;;;;
2023/08/17 08:37:55;;;;;;;2.4;1.6;;;;;;;29.93;44.01953;939.3786;;;;
2023/08/17 08:40:20;;;;;;;2;1.8;;;;;;;30.78;45.14258;939.395;;;;
2023/08/17 08:42:46;;;;;;;2.6;1.6;;;;;;;30.75;43.80176;939.3671;;;;
2023/08/17 08:48:12;;;;;;;3;1.7;;;;;;;31.4;43.94824;939.4141;;;;
2023/08/17 08:50:40;;;;;;;1.9;1.6;;;;;;;30.98;44.03906;939.3416;;;;
2023/08/17 08:53:06;;;;;;;2;1.5;;;;;;;31.44;44.58691;939.4072;;;;
2023/08/17 08:55:32;;;;;;;1.7;1.6;;;;;;;31.17;45.24121;939.3089;;;;
2023/08/17 08:57:57;;;;;;;2.3;1.6;;;;;;;31.61;43.53711;939.3331;;;;
2023/08/17 09:00:23;;;;;;;2.8;1.8;;;;;;;31.54;45.01465;939.3298;;;;
2023/08/17 09:02:49;;;;;;;4.7;1.8;;;;;;;30.63;46.93262;939.2961;;;;
2023/08/17 09:05:15;;;;;;;1.3;1.3;;;;;;;30.96;44.64648;939.3013;;;;
2023/08/17 09:07:40;;;;;;;2;1.8;;;;;;;30.49;44.45703;939.2344;;;;
2023/08/17 09:10:11;;;;;;;2.7;1.9;;;;;;;30.11;45.29102;939.2129;;;;
2023/08/17 09:12:38;;;;;;;2.1;1.6;;;;;;;29.81;47.84961;939.21;;;;
2023/08/17 09:15:03;;;;;;;2.8;1.9;;;;;;;30.03;47.72949;939.1614;;;;
2023/08/17 09:17:28;;;;;;;1.8;1.7;;;;;;;29.66;47.85645;939.1448;;;;
2023/08/17 09:19:53;;;;;;;2.3;1.8;;;;;;;29.37;50.41211;939.1678;;;;
2023/08/17 09:22:19;;;;;;;1.6;1.5;;;;;;;29.64;47.68848;939.1216;;;;
2023/08/17 09:24:44;;;;;;;2.2;1.7;;;;;;;29.64;46.1377;939.1442;;;;
2023/08/17 09:27:09;;;;;;;1.7;1.5;;;;;;;29.94;44.9873;939.1236;;;;
2023/08/17 09:29:38;;;;;;;3.7;1.7;;;;;;;29.63;49.95215;939.0881;;;;
2023/08/17 09:37:24;;;;;;;3.3;1.9;;;;;;;29.58;50.12598;939.0328;;;;
2023/08/17 09:39:49;;;;;;;2.3;1.8;;;;;;;29.6;48.7207;939.0657;;;;
2023/08/17 09:48:10;;;;;;;2.5;2;;;;;;;29.08;51.07031;938.918;;;;
2023/08/17 09:50:27;;;;;;;2;1.8;;;;;;;29.41;47.73438;938.9414;;;;
2023/08/17 09:52:52;;;;;;;1.7;1.6;;;;;;;29.61;44.90723;938.9448;;;;
2023/08/17 09:55:19;;;;;;;3.6;1.8;;;;;;;29.89;44.39844;938.9084;;;;
2023/08/17 09:57:45;;;;;;;2.2;1.6;;;;;;;30.3;43.39941;938.8903;;;;
2023/08/17 10:00:11;;;;;;;4.5;2.2;;;;;;;29.99;43.82324;938.8688;;;;
2023/08/17 10:02:36;;;;;;;2.4;1.7;;;;;;;30.37;42.67773;938.8592;;;;
2023/08/17 10:05:01;;;;;;;2.5;1.8;;;;;;;30.52;44.2207;938.8766;;;;
2023/08/17 10:07:26;;;;;;;2.6;1.7;;;;;;;30.5;45.74902;938.803;;;;
2023/08/17 10:09:52;;;;;;;2.5;1.9;;;;;;;30.3;45.89551;938.7811;;;;
2023/08/17 10:12:17;;;;;;;2.5;1.7;;;;;;;30.41;44.4375;938.7042;;;;
2023/08/17 10:14:46;;;;;;;3.5;1.9;;;;;;;30.47;44.22852;938.7321;;;;
2023/08/17 10:17:10;;;;;;;2.5;1.9;;;;;;;30.62;44.50586;938.7358;;;;
2023/08/17 10:19:32;;;;;;;2;1.8;;;;;;;31.17;43.86523;938.7155;;;;
2023/08/17 10:21:59;;;;;;;2.5;2.3;;;;;;;31.5;45.87305;938.7249;;;;
2023/08/17 10:24:24;;;;;;;1.9;1.8;;;;;;;31.48;46.1582;938.673;;;;
2023/08/17 10:26:49;;;;;;;3.5;2.1;;;;;;;31.39;46.75879;938.6792;;;;
2023/08/17 10:29:16;;;;;;;3.2;2.1;;;;;;;31.86;44.23145;938.6381;;;;
2023/08/17 10:31:52;;;;;;;2.6;2.4;;;;;;;32.19;45.0918;938.631;;;;
2023/08/17 10:34:19;;;;;;;2.3;2.1;;;;;;;32.97;42.63574;938.6291;;;;
2023/08/17 10:36:44;;;;;;;2.6;2;;;;;;;33.38;41.05078;938.5503;;;;
2023/08/17 10:39:14;;;;;;;2.3;2;;;;;;;33.98;39.94922;938.5335;;;;
2023/08/17 10:41:39;;;;;;;2.7;2.1;;;;;;;34.09;41.13867;938.5306;;;;
2023/08/17 10:44:07;;;;;;;3.2;2.4;;;;;;;33.89;39.35254;938.4897;;;;
2023/08/17 10:46:30;;;;;;;2.4;2.2;;;;;;;33.66;42.39941;938.4978;;;;
2023/08/17 10:48:57;;;;;;;3.2;2.1;;;;;;;33.85;40.83984;938.4644;;;;
2023/08/17 10:51:43;;;;;;;2.6;2.1;;;;;;;34.85;38.44531;938.4543;;;;
2023/08/17 10:54:09;;;;;;;3.8;2.4;;;;;;;33.97;41.0791;938.4163;;;;
2023/08/17 10:56:33;;;;;;;3;2.4;;;;;;;35.34;39.80273;938.4708;;;;
2023/08/17 10:58:59;;;;;;;2.8;2.3;;;;;;;34.62;41.42773;938.4189;;;;
2023/08/17 11:01:24;;;;;;;2.6;2.4;;;;;;;35.27;39.92969;938.4542;;;;
2023/08/17 11:03:51;;;;;;;2.5;2.3;;;;;;;36.7;37.79004;938.3914;;;;
2023/08/17 11:06:17;;;;;;;2.6;2.3;;;;;;;37.4;35.25293;938.3923;;;;
2023/08/17 11:08:42;;;;;;;4.5;2.1;;;;;;;36.06;37.03613;938.3436;;;;
2023/08/17 11:11:09;;;;;;;3.1;2.2;;;;;;;36.69;35.62207;938.2802;;;;
2023/08/17 11:13:35;;;;;;;3.7;2.4;;;;;;;37.52;34.52148;938.2711;;;;
2023/08/17 11:16:02;;;;;;;2.2;2.1;;;;;;;36.14;36.14746;938.2127;;;;
2023/08/17 11:18:27;;;;;;;2.4;2.2;;;;;;;37.12;33.69141;938.2445;;;;
2023/08/17 11:20:53;;;;;;;2.3;2.1;;;;;;;38.04;31.70801;938.2419;;;;
2023/08/17 11:23:18;;;;;;;2.3;1.8;;;;;;;39.05;30.82813;938.238;;;;
2023/08/17 11:25:47;;;;;;;3.4;2;;;;;;;39.76;29.75293;938.2061;;;;
2023/08/17 11:28:14;;;;;;;1.9;1.8;;;;;;;39.8;30.29297;938.1918;;;;
2023/08/17 11:30:41;;;;;;;2.1;1.7;;;;;;;38.57;32.53418;938.1174;;;;
2023/08/17 11:33:06;;;;;;;2.5;2.2;;;;;;;38.05;35.07129;938.1053;;;;
2023/08/17 11:35:32;;;;;;;2.5;2;;;;;;;39.01;32.29785;938.0714;;;;
2023/08/17 11:37:57;;;;;;;2.2;2;;;;;;;38.83;31.49414;938.0572;;;;
2023/08/17 11:40:23;;;;;;;2.7;1.9;;;;;;;40.04;29.68555;938.0656;;;;
2023/08/17 11:42:48;;;;;;;2.5;1.9;;;;;;;39.11;31.5625;938.1071;;;;
2023/08/17 11:45:17;;;;;;;2.1;2;;;;;;;39.84;29.84473;938.0552;;;;
2023/08/17 11:47:48;;;;;;;2.3;2.1;;;;;;;38.93;29.87109;938.0265;;;;
2023/08/17 11:50:19;;;;;;;2.1;2;;;;;;;36;35.35156;938.0503;;;;
2023/08/17 11:52:48;;;;;;;2.6;2.4;;;;;;;34.96;36.16309;938.0878;;;;
2023/08/17 11:55:13;;;;;;;2.4;2.2;;;;;;;33.55;38.74512;938.0059;;;;
2023/08/17 11:57:38;;;;;;;2.6;2.3;;;;;;;32.87;40.95703;938.0485;;;;
2023/08/17 12:00:09;;;;;;;3;2.3;;;;;;;32.32;42.25098;938.0513;;;;
2023/08/17 12:02:41;;;;;;;2.8;2.5;;;;;;;32.32;42.75391;938.0754;;;;
2023/08/17 12:05:01;;;;;;;3.2;2.4;;;;;;;32.15;43.12207;938.0589;;;;
2023/08/17 12:07:27;;;;;;;3.3;2.3;;;;;;;31.69;44.51563;938.1022;;;;
2023/08/17 12:10:22;;;;;;;2.5;2.3;;;;;;;31.55;45.01563;938.074;;;;
2023/08/17 12:12:52;;;;;;;3.1;2.4;;;;;;;31.5;44.66406;938.0541;;;;
2023/08/17 12:15:21;;;;;;;3.4;2.4;;;;;;;31.49;44.62695;938.0281;;;;
2023/08/17 12:17:47;;;;;;;2.4;2.2;;;;;;;31.99;41.73926;937.9448;;;;
2023/08/17 12:20:11;;;;;;;4.1;2.2;;;;;;;33.93;39.05469;937.941;;;;
2023/08/17 12:23:10;;;;;;;2.2;2;;;;;;;35.85;35.25488;937.9199;;;;
2023/08/17 12:25:39;;;;;;;2.2;2;;;;;;;38.44;32.81641;937.9191;;;;
2023/08/17 12:28:04;;;;;;;2.4;2.2;;;;;;;39.12;30.21094;937.9238;;;;
2023/08/17 12:30:36;;;;;;;2.2;2;;;;;;;38.83;30.80078;937.8329;;;;
2023/08/17 12:33:00;;;;;;;2.6;2.2;;;;;;;38.27;31.96582;937.8455;;;;
2023/08/17 12:35:26;;;;;;;3.2;2.3;;;;;;;37.33;33.53809;937.7296;;;;
2023/08/17 12:37:50;;;;;;;2.4;2.1;;;;;;;37.08;34.28223;937.6694;;;;
2023/08/17 12:40:18;;;;;;;3;2.3;;;;;;;36.1;34.83887;937.6262;;;;
2023/08/17 12:42:44;;;;;;;2.3;2.1;;;;;;;35.91;36.15332;937.6353;;;;
2023/08/17 12:45:11;;;;;;;2.4;2.2;;;;;;;35.01;38.27832;937.5519;;;;
2023/08/17 12:47:36;;;;;;;2.3;2;;;;;;;35.01;37.55469;937.5662;;;;
2023/08/17 12:50:03;;;;;;;2.3;2.1;;;;;;;34.77;37.00488;937.538;;;;
2023/08/17 12:52:28;;;;;;;3;2.2;;;;;;;34.24;35.50391;937.5372;;;;
2023/08/17 12:54:53;;;;;;;2.6;2.1;;;;;;;33.22;39.70215;937.5457;;;;
2023/08/17 12:57:18;;;;;;;2.5;2.3;;;;;;;32.5;41.19922;937.4448;;;;
2023/08/17 12:59:43;;;;;;;2.1;2;;;;;;;32.43;39.17773;937.4777;;;;
2023/08/17 13:02:41;;;;;;;2.3;2.1;;;;;;;32.48;38.92969;937.4711;;;;
2023/08/17 13:05:10;;;;;;;3.1;2.5;;;;;;;32.08;43.62988;937.4166;;;;
2023/08/17 13:07:59;;;;;;;2.5;2.2;;;;;;;32.19;40.87109;937.3712;;;;
2023/08/17 13:10:26;;;;;;;2.4;2.1;;;;;;;32.05;40.9082;937.3411;;;;
2023/08/17 13:12:59;;;;;;;3;2.3;;;;;;;32.14;41.46582;937.3398;;;;
2023/08/17 13:18:58;;;;;;;2.4;2.2;;;;;;;31.86;43.87207;937.3564;;;;
2023/08/17 13:21:26;;;;;;;2.1;1.9;;;;;;;31.85;41.57227;937.3314;;;;
2023/08/17 13:23:51;;;;;;;2.8;2;;;;;;;31.96;40.0957;937.2795;;;;
2023/08/17 13:26:20;;;;;;;3;2.1;;;;;;;32.06;40.97949;937.2961;;;;
2023/08/17 13:28:45;;;;;;;2;1.9;;;;;;;32.04;40.42676;937.3016;;;;
2023/08/17 13:31:15;;;;;;;2.6;2.4;;;;;;;31.78;39.80469;937.293;;;;
2023/08/17 13:33:40;;;;;;;2.4;2.2;;;;;;;31.77;38.68945;937.2344;;;;
2023/08/17 13:36:07;;;;;;;2.8;2.3;;;;;;;31.68;39.65137;937.2706;;;;
2023/08/17 13:38:32;;;;;;;2.8;2.4;;;;;;;31.16;40.87402;937.2473;;;;
2023/08/17 13:41:00;;;;;;;3.6;2.1;;;;;;;30.99;40.45215;937.2397;;;;
2023/08/17 13:43:26;;;;;;;2.7;2.1;;;;;;;30.83;40.85645;937.2946;;;;
2023/08/17 13:45:53;;;;;;;2.2;2;;;;;;;30.86;42.13867;937.293;;;;
2023/08/17 13:48:19;;;;;;;2.4;2.2;;;;;;;30.93;41.49902;937.2656;;;;
2023/08/17 13:50:44;;;;;;;2.1;1.9;;;;;;;30.93;39.90918;937.2169;;;;
2023/08/17 13:53:09;;;;;;;5.1;2.2;;;;;;;30.86;40.95508;937.1761;;;;
2023/08/17 13:55:37;;;;;;;3.8;2.6;;;;;;;30.78;41.7959;937.1518;;;;
2023/08/17 13:58:09;;;;;;;2.1;2;;;;;;;30.39;42.22656;937.1442;;;;
2023/08/17 14:00:32;;;;;;;2.2;2;;;;;;;30.21;40.9082;937.1556;;;;
2023/08/17 14:02:57;;;;;;;2.4;2.2;;;;;;;30.13;41.40234;937.218;;;;
2023/08/17 14:05:22;;;;;;;2.3;2.1;;;;;;;29.75;43.97852;937.1556;;;;
2023/08/17 14:07:51;;;;;;;3.1;2.6;;;;;;;29.82;42.80469;937.1328;;;;
2023/08/17 14:10:50;;;;;;;3;2.1;;;;;;;29.69;43.19727;937.0618;;;;
2023/08/17 14:13:07;;;;;;;3.2;2.2;;;;;;;29.25;43.3584;936.9989;;;;
2023/08/17 14:15:32;;;;;;;2.2;2;;;;;;;28.99;43.29688;937.0214;;;;
2023/08/17 14:18:00;;;;;;;2.3;2.1;;;;;;;28.72;43.06934;936.9681;;;;
2023/08/17 14:20:25;;;;;;;3;2;;;;;;;28.75;43.54785;936.9012;;;;
2023/08/17 14:22:50;;;;;;;2.3;2.1;;;;;;;28.58;45.4707;936.8971;;;;
2023/08/17 14:25:15;;;;;;;4.2;2.5;;;;;;;28.52;46.15332;936.9599;;;;
2023/08/17 14:27:46;;;;;;;2.5;1.9;;;;;;;28.43;46.07324;937.0112;;;;
2023/08/17 14:30:16;;;;;;;2.7;2;;;;;;;28.38;45.6875;937.0527;;;;
2023/08/17 14:32:41;;;;;;;2.1;1.9;;;;;;;28.34;46.62305;937.0345;;;;
2023/08/17 14:35:09;;;;;;;2.5;2.3;;;;;;;28.23;47.39648;937.031;;;;
2023/08/17 14:37:35;;;;;;;2.4;2.2;;;;;;;28.15;48.06543;937.0622;;;;
2023/08/17 14:40:00;;;;;;;2.4;2.2;;;;;;;28.13;47.52734;937.0733;;;;
2023/08/17 14:42:26;;;;;;;2.4;2.1;;;;;;;27.95;51.5957;937.2048;;;;
2023/08/17 14:44:50;;;;;;;3.8;2.6;;;;;;;27.79;49.99902;937.2473;;;;
2023/08/17 14:47:19;;;;;;;4.2;2.6;;;;;;;27.71;48.03027;937.3088;;;;
2023/08/17 14:49:46;;;;;;;3.8;2.6;;;;;;;27.72;48.44727;937.3727;;;;
2023/08/17 14:52:12;;;;;;;2.1;1.9;;;;;;;27.75;47.45313;937.4117;;;;
2023/08/17 14:54:38;;;;;;;2.5;2;;;;;;;27.76;46.6582;937.4563;;;;
2023/08/17 14:57:03;;;;;;;2.9;2.3;;;;;;;27.8;46.9834;937.4006;;;;
2023/08/17 14:59:30;;;;;;;3.5;2.6;;;;;;;27.85;45.44434;937.4656;;;;
2023/08/17 15:01:56;;;;;;;3.5;2.3;;;;;;;27.97;46.02637;937.424;;;;
2023/08/17 15:04:21;;;;;;;4.2;2.7;;;;;;;28.01;52.77734;937.4704;;;;
2023/08/17 15:06:47;;;;;;;2.5;2.3;;;;;;;27.97;54.8418;937.5078;;;;
2023/08/17 15:09:14;;;;;;;3.2;2.3;;;;;;;27.77;53.83105;937.4482;;;;
2023/08/17 15:11:39;;;;;;;2.8;2.5;;;;;;;27.6;55.79199;937.5165;;;;
2023/08/17 15:14:05;;;;;;;4.1;3.1;;;;;;;27.37;55.15918;937.5059;;;;
2023/08/17 15:16:30;;;;;;;3.6;2.8;;;;;;;27.25;56.7207;937.6092;;;;
2023/08/17 15:18:56;;;;;;;3;2.7;;;;;;;26.86;59.45605;937.5958;;;;
2023/08/17 15:21:21;;;;;;;3.2;2.8;;;;;;;26.5;61.49316;937.6697;;;;
2023/08/17 15:23:58;;;;;;;4.1;3.2;;;;;;;26.41;62.11914;937.6605;;;;
2023/08/17 15:26:25;;;;;;;3;2.7;;;;;;;26.26;62.78418;937.6503;;;;
2023/08/17 15:28:51;;;;;;;4.1;2.9;;;;;;;26.36;63.03418;937.6404;;;;
2023/08/17 15:31:56;;;;;;;3.1;2.5;;;;;;;26.38;60.75391;937.6613;;;;
2023/08/17 15:34:25;;;;;;;4;2.6;;;;;;;26.46;59.33105;937.6738;;;;
2023/08/17 15:36:50;;;;;;;4.1;2.7;;;;;;;26.41;59.16992;937.736;;;;
2023/08/17 15:39:19;;;;;;;2.5;2.3;;;;;;;26.35;59.79199;937.752;;;;
2023/08/17 15:41:44;;;;;;;2.5;2.3;;;;;;;26.29;57.15723;937.8624;;;;
2023/08/17 15:44:11;;;;;;;3.1;2.3;;;;;;;26.28;57.87695;937.9021;;;;
2023/08/17 15:46:37;;;;;;;3.8;2.2;;;;;;;26.19;56.47949;937.8904;;;;
2023/08/17 15:49:05;;;;;;;2.7;2.4;;;;;;;26.06;55.71875;937.9437;;;;
2023/08/17 15:51:30;;;;;;;4;2.4;;;;;;;25.99;54.93066;938.0219;;;;
2023/08/17 15:54:00;;;;;;;2.9;2.5;;;;;;;25.94;53.35254;938.0505;;;;
2023/08/17 15:56:25;;;;;;;2.2;2;;;;;;;25.97;53.89844;938.1426;;;;
2023/08/17 15:58:51;;;;;;;3.6;2.6;;;;;;;26.03;54.49609;938.1816;;;;
2023/08/17 16:01:16;;;;;;;4.3;2.2;;;;;;;26.01;54.03418;938.2885;;;;